sensor_id;sensor_type;location;lat;lon;timestamp;P1;durP1;ratioP1;P2;durP2;ratioP2
22320;SDS011;11328;53.928;18.522;2023-07-20T00:01:00;9.25;;;4.90;;
22320;SDS011;11328;53.928;18.522;2023-07-20T00:03:28;9.40;;;4.68;;
22320;SDS011;11328;53.928;18.522;2023-07-20T00:05:55;9.27;;;4.55;;
22320;SDS011;11328;53.928;18.522;2023-07-20T00:08:22;8.23;;;4.60;;
22320;SDS011;11328;53.928;18.522;2023-07-20T00:10:49;8.18;;;4.53;;
22320;SDS011;11328;53.928;18.522;2023-07-20T00:13:17;9.05;;;4.68;;
22320;SDS011;11328;53.928;18.522;2023-07-20T00:15:45;9.85;;;4.82;;
22320;SDS011;11328;53.928;18.522;2023-07-20T00:18:13;10.10;;;4.90;;
22320;SDS011;11328;53.928;18.522;2023-07-20T00:20:41;10.13;;;5.22;;
22320;SDS011;11328;53.928;18.522;2023-07-20T00:23:08;13.57;;;5.50;;
22320;SDS011;11328;53.928;18.522;2023-07-20T00:25:35;10.27;;;5.22;;
22320;SDS011;11328;53.928;18.522;2023-07-20T00:28:03;11.23;;;5.68;;
22320;SDS011;11328;53.928;18.522;2023-07-20T00:30:30;10.35;;;5.90;;
22320;SDS011;11328;53.928;18.522;2023-07-20T00:32:57;10.20;;;5.55;;
22320;SDS011;11328;53.928;18.522;2023-07-20T00:35:25;10.15;;;6.13;;
22320;SDS011;11328;53.928;18.522;2023-07-20T00:37:52;12.40;;;5.88;;
22320;SDS011;11328;53.928;18.522;2023-07-20T00:40:19;11.90;;;6.07;;
22320;SDS011;11328;53.928;18.522;2023-07-20T00:42:47;13.57;;;7.03;;
22320;SDS011;11328;53.928;18.522;2023-07-20T00:45:15;12.70;;;6.32;;
22320;SDS011;11328;53.928;18.522;2023-07-20T00:47:42;10.55;;;6.30;;
22320;SDS011;11328;53.928;18.522;2023-07-20T00:50:10;10.80;;;6.82;;
22320;SDS011;11328;53.928;18.522;2023-07-20T00:52:37;12.15;;;6.90;;
22320;SDS011;11328;53.928;18.522;2023-07-20T00:55:06;10.32;;;6.40;;
22320;SDS011;11328;53.928;18.522;2023-07-20T00:57:35;12.57;;;6.53;;
22320;SDS011;11328;53.928;18.522;2023-07-20T01:00:03;12.10;;;6.30;;
22320;SDS011;11328;53.928;18.522;2023-07-20T01:02:32;11.38;;;6.07;;
22320;SDS011;11328;53.928;18.522;2023-07-20T01:05:00;10.75;;;6.05;;
22320;SDS011;11328;53.928;18.522;2023-07-20T01:07:37;10.45;;;5.80;;
22320;SDS011;11328;53.928;18.522;2023-07-20T01:10:28;10.52;;;5.47;;
22320;SDS011;11328;53.928;18.522;2023-07-20T01:13:02;10.63;;;5.65;;
22320;SDS011;11328;53.928;18.522;2023-07-20T01:15:34;9.05;;;5.45;;
22320;SDS011;11328;53.928;18.522;2023-07-20T01:18:01;11.63;;;5.32;;
22320;SDS011;11328;53.928;18.522;2023-07-20T01:20:31;9.85;;;5.38;;
22320;SDS011;11328;53.928;18.522;2023-07-20T01:23:06;11.27;;;5.53;;
22320;SDS011;11328;53.928;18.522;2023-07-20T01:25:51;9.90;;;5.47;;
22320;SDS011;11328;53.928;18.522;2023-07-20T01:28:57;12.68;;;5.78;;
22320;SDS011;11328;53.928;18.522;2023-07-20T01:31:43;11.90;;;5.90;;
22320;SDS011;11328;53.928;18.522;2023-07-20T01:34:13;8.68;;;4.90;;
22320;SDS011;11328;53.928;18.522;2023-07-20T01:36:45;10.40;;;5.00;;
22320;SDS011;11328;53.928;18.522;2023-07-20T01:39:16;11.05;;;5.15;;
22320;SDS011;11328;53.928;18.522;2023-07-20T01:41:44;8.25;;;4.88;;
22320;SDS011;11328;53.928;18.522;2023-07-20T01:44:12;10.30;;;5.03;;
22320;SDS011;11328;53.928;18.522;2023-07-20T01:46:40;10.05;;;4.85;;
22320;SDS011;11328;53.928;18.522;2023-07-20T01:49:07;9.65;;;4.78;;
22320;SDS011;11328;53.928;18.522;2023-07-20T01:51:34;12.52;;;6.70;;
22320;SDS011;11328;53.928;18.522;2023-07-20T01:54:02;11.38;;;5.47;;
22320;SDS011;11328;53.928;18.522;2023-07-20T01:56:29;9.70;;;5.15;;
22320;SDS011;11328;53.928;18.522;2023-07-20T01:58:56;10.65;;;5.65;;
22320;SDS011;11328;53.928;18.522;2023-07-20T02:01:23;14.40;;;6.15;;
22320;SDS011;11328;53.928;18.522;2023-07-20T02:03:50;12.18;;;4.43;;
22320;SDS011;11328;53.928;18.522;2023-07-20T02:06:17;8.80;;;4.40;;
22320;SDS011;11328;53.928;18.522;2023-07-20T02:08:45;8.55;;;4.55;;
22320;SDS011;11328;53.928;18.522;2023-07-20T02:11:12;12.30;;;5.05;;
22320;SDS011;11328;53.928;18.522;2023-07-20T02:13:39;12.10;;;5.38;;
22320;SDS011;11328;53.928;18.522;2023-07-20T02:16:06;10.82;;;5.30;;
22320;SDS011;11328;53.928;18.522;2023-07-20T02:18:33;11.25;;;5.70;;
22320;SDS011;11328;53.928;18.522;2023-07-20T02:21:02;10.25;;;5.22;;
22320;SDS011;11328;53.928;18.522;2023-07-20T02:23:29;13.45;;;5.18;;
22320;SDS011;11328;53.928;18.522;2023-07-20T02:25:56;9.10;;;4.70;;
22320;SDS011;11328;53.928;18.522;2023-07-20T02:28:23;12.57;;;5.22;;
22320;SDS011;11328;53.928;18.522;2023-07-20T02:30:50;8.88;;;4.75;;
22320;SDS011;11328;53.928;18.522;2023-07-20T02:33:17;7.45;;;4.45;;
22320;SDS011;11328;53.928;18.522;2023-07-20T02:35:45;14.27;;;4.65;;
22320;SDS011;11328;53.928;18.522;2023-07-20T02:38:12;12.30;;;4.70;;
22320;SDS011;11328;53.928;18.522;2023-07-20T02:40:39;7.97;;;4.43;;
22320;SDS011;11328;53.928;18.522;2023-07-20T02:43:06;10.23;;;4.72;;
22320;SDS011;11328;53.928;18.522;2023-07-20T02:45:33;8.10;;;4.38;;
22320;SDS011;11328;53.928;18.522;2023-07-20T02:48:00;9.73;;;4.50;;
22320;SDS011;11328;53.928;18.522;2023-07-20T02:50:29;8.88;;;4.55;;
22320;SDS011;11328;53.928;18.522;2023-07-20T02:52:56;8.35;;;4.03;;
22320;SDS011;11328;53.928;18.522;2023-07-20T02:55:23;8.93;;;4.30;;
22320;SDS011;11328;53.928;18.522;2023-07-20T02:57:50;14.05;;;4.57;;
22320;SDS011;11328;53.928;18.522;2023-07-20T03:00:17;10.32;;;4.60;;
22320;SDS011;11328;53.928;18.522;2023-07-20T03:02:46;10.20;;;4.40;;
22320;SDS011;11328;53.928;18.522;2023-07-20T03:05:22;11.13;;;5.35;;
22320;SDS011;11328;53.928;18.522;2023-07-20T03:07:55;10.70;;;4.78;;
22320;SDS011;11328;53.928;18.522;2023-07-20T03:10:22;12.90;;;4.80;;
22320;SDS011;11328;53.928;18.522;2023-07-20T03:12:49;14.65;;;5.00;;
22320;SDS011;11328;53.928;18.522;2023-07-20T03:15:16;9.38;;;4.50;;
22320;SDS011;11328;53.928;18.522;2023-07-20T03:17:44;10.77;;;5.78;;
22320;SDS011;11328;53.928;18.522;2023-07-20T03:20:11;8.55;;;4.55;;
22320;SDS011;11328;53.928;18.522;2023-07-20T03:22:39;10.68;;;4.35;;
22320;SDS011;11328;53.928;18.522;2023-07-20T03:25:06;9.27;;;4.25;;
22320;SDS011;11328;53.928;18.522;2023-07-20T03:27:34;12.95;;;4.35;;
22320;SDS011;11328;53.928;18.522;2023-07-20T03:30:01;8.80;;;3.90;;
22320;SDS011;11328;53.928;18.522;2023-07-20T03:32:29;10.50;;;4.65;;
22320;SDS011;11328;53.928;18.522;2023-07-20T03:34:56;8.88;;;4.50;;
22320;SDS011;11328;53.928;18.522;2023-07-20T03:37:23;10.50;;;4.78;;
22320;SDS011;11328;53.928;18.522;2023-07-20T03:39:50;7.68;;;4.20;;
22320;SDS011;11328;53.928;18.522;2023-07-20T03:42:18;10.07;;;4.70;;
22320;SDS011;11328;53.928;18.522;2023-07-20T03:44:45;9.85;;;4.18;;
22320;SDS011;11328;53.928;18.522;2023-07-20T03:47:12;8.40;;;4.82;;
22320;SDS011;11328;53.928;18.522;2023-07-20T03:49:39;8.18;;;3.92;;
22320;SDS011;11328;53.928;18.522;2023-07-20T03:52:09;8.07;;;4.13;;
22320;SDS011;11328;53.928;18.522;2023-07-20T03:54:36;7.78;;;3.70;;
22320;SDS011;11328;53.928;18.522;2023-07-20T03:57:03;9.75;;;4.20;;
22320;SDS011;11328;53.928;18.522;2023-07-20T03:59:31;10.98;;;4.45;;
22320;SDS011;11328;53.928;18.522;2023-07-20T04:01:59;9.68;;;4.82;;
22320;SDS011;11328;53.928;18.522;2023-07-20T04:04:26;9.00;;;4.43;;
22320;SDS011;11328;53.928;18.522;2023-07-20T04:06:54;9.77;;;4.25;;
22320;SDS011;11328;53.928;18.522;2023-07-20T04:09:21;7.75;;;3.88;;
22320;SDS011;11328;53.928;18.522;2023-07-20T04:11:49;8.15;;;3.88;;
22320;SDS011;11328;53.928;18.522;2023-07-20T04:14:16;8.15;;;4.22;;
22320;SDS011;11328;53.928;18.522;2023-07-20T04:16:45;14.75;;;5.05;;
22320;SDS011;11328;53.928;18.522;2023-07-20T04:19:13;10.18;;;4.82;;
22320;SDS011;11328;53.928;18.522;2023-07-20T04:21:40;13.15;;;5.07;;
22320;SDS011;11328;53.928;18.522;2023-07-20T04:24:08;8.35;;;4.70;;
22320;SDS011;11328;53.928;18.522;2023-07-20T04:26:35;12.75;;;4.80;;
22320;SDS011;11328;53.928;18.522;2023-07-20T04:29:03;10.10;;;4.95;;
22320;SDS011;11328;53.928;18.522;2023-07-20T04:31:30;9.05;;;4.80;;
22320;SDS011;11328;53.928;18.522;2023-07-20T04:33:59;10.85;;;4.93;;
22320;SDS011;11328;53.928;18.522;2023-07-20T04:36:27;10.60;;;4.75;;
22320;SDS011;11328;53.928;18.522;2023-07-20T04:38:54;15.40;;;4.90;;
22320;SDS011;11328;53.928;18.522;2023-07-20T04:41:22;10.15;;;5.18;;
22320;SDS011;11328;53.928;18.522;2023-07-20T04:43:49;10.70;;;5.00;;
22320;SDS011;11328;53.928;18.522;2023-07-20T04:46:16;10.65;;;4.65;;
22320;SDS011;11328;53.928;18.522;2023-07-20T04:48:45;8.50;;;4.53;;
22320;SDS011;11328;53.928;18.522;2023-07-20T04:51:12;13.82;;;5.38;;
22320;SDS011;11328;53.928;18.522;2023-07-20T04:53:39;8.93;;;4.32;;
22320;SDS011;11328;53.928;18.522;2023-07-20T04:56:07;10.20;;;4.03;;
22320;SDS011;11328;53.928;18.522;2023-07-20T04:58:34;10.55;;;3.80;;
22320;SDS011;11328;53.928;18.522;2023-07-20T05:01:02;8.10;;;4.53;;
22320;SDS011;11328;53.928;18.522;2023-07-20T05:03:29;9.45;;;4.68;;
22320;SDS011;11328;53.928;18.522;2023-07-20T05:05:56;11.88;;;4.68;;
22320;SDS011;11328;53.928;18.522;2023-07-20T05:08:23;8.80;;;4.80;;
22320;SDS011;11328;53.928;18.522;2023-07-20T05:10:51;10.27;;;4.70;;
22320;SDS011;11328;53.928;18.522;2023-07-20T05:13:18;10.40;;;4.35;;
22320;SDS011;11328;53.928;18.522;2023-07-20T05:15:45;15.68;;;5.22;;
22320;SDS011;11328;53.928;18.522;2023-07-20T05:18:13;9.93;;;4.40;;
22320;SDS011;11328;53.928;18.522;2023-07-20T05:20:49;13.07;;;4.30;;
22320;SDS011;11328;53.928;18.522;2023-07-20T05:23:17;7.88;;;3.83;;
22320;SDS011;11328;53.928;18.522;2023-07-20T05:25:58;8.38;;;4.00;;
22320;SDS011;11328;53.928;18.522;2023-07-20T05:28:26;10.18;;;4.10;;
22320;SDS011;11328;53.928;18.522;2023-07-20T05:30:53;10.02;;;4.30;;
22320;SDS011;11328;53.928;18.522;2023-07-20T05:33:21;7.55;;;3.80;;
22320;SDS011;11328;53.928;18.522;2023-07-20T05:35:49;8.23;;;4.00;;
22320;SDS011;11328;53.928;18.522;2023-07-20T05:38:16;10.27;;;4.50;;
22320;SDS011;11328;53.928;18.522;2023-07-20T05:40:44;14.80;;;4.00;;
22320;SDS011;11328;53.928;18.522;2023-07-20T05:43:12;11.80;;;4.30;;
22320;SDS011;11328;53.928;18.522;2023-07-20T05:45:43;7.75;;;3.85;;
22320;SDS011;11328;53.928;18.522;2023-07-20T05:48:11;8.35;;;3.75;;
22320;SDS011;11328;53.928;18.522;2023-07-20T05:50:43;6.47;;;3.60;;
22320;SDS011;11328;53.928;18.522;2023-07-20T05:53:10;7.20;;;3.50;;
22320;SDS011;11328;53.928;18.522;2023-07-20T05:55:38;9.63;;;3.88;;
22320;SDS011;11328;53.928;18.522;2023-07-20T05:58:06;8.48;;;4.10;;
22320;SDS011;11328;53.928;18.522;2023-07-20T06:00:33;7.72;;;3.70;;
22320;SDS011;11328;53.928;18.522;2023-07-20T06:03:01;7.28;;;3.92;;
22320;SDS011;11328;53.928;18.522;2023-07-20T06:05:29;10.88;;;3.85;;
22320;SDS011;11328;53.928;18.522;2023-07-20T06:07:57;7.82;;;4.00;;
22320;SDS011;11328;53.928;18.522;2023-07-20T06:10:24;7.05;;;4.07;;
22320;SDS011;11328;53.928;18.522;2023-07-20T06:12:53;9.57;;;3.47;;
22320;SDS011;11328;53.928;18.522;2023-07-20T06:15:26;8.45;;;3.50;;
22320;SDS011;11328;53.928;18.522;2023-07-20T06:18:03;6.88;;;3.38;;
22320;SDS011;11328;53.928;18.522;2023-07-20T06:20:30;4.80;;;2.80;;
22320;SDS011;11328;53.928;18.522;2023-07-20T06:22:57;6.95;;;3.20;;
22320;SDS011;11328;53.928;18.522;2023-07-20T06:25:24;9.00;;;3.17;;
22320;SDS011;11328;53.928;18.522;2023-07-20T06:27:52;5.93;;;3.00;;
22320;SDS011;11328;53.928;18.522;2023-07-20T06:30:22;8.93;;;3.35;;
22320;SDS011;11328;53.928;18.522;2023-07-20T06:32:51;7.40;;;2.78;;
22320;SDS011;11328;53.928;18.522;2023-07-20T06:35:18;9.30;;;2.70;;
22320;SDS011;11328;53.928;18.522;2023-07-20T06:37:45;4.93;;;2.63;;
22320;SDS011;11328;53.928;18.522;2023-07-20T06:40:13;4.50;;;2.15;;
22320;SDS011;11328;53.928;18.522;2023-07-20T06:42:43;4.22;;;2.05;;
22320;SDS011;11328;53.928;18.522;2023-07-20T06:45:13;6.85;;;2.20;;
22320;SDS011;11328;53.928;18.522;2023-07-20T06:47:40;7.55;;;2.22;;
22320;SDS011;11328;53.928;18.522;2023-07-20T06:50:08;7.07;;;2.47;;
22320;SDS011;11328;53.928;18.522;2023-07-20T06:52:43;6.60;;;2.58;;
22320;SDS011;11328;53.928;18.522;2023-07-20T06:55:10;6.82;;;2.10;;
22320;SDS011;11328;53.928;18.522;2023-07-20T06:57:37;8.10;;;3.58;;
22320;SDS011;11328;53.928;18.522;2023-07-20T07:00:05;6.45;;;2.05;;
22320;SDS011;11328;53.928;18.522;2023-07-20T07:02:33;4.68;;;1.98;;
22320;SDS011;11328;53.928;18.522;2023-07-20T07:05:02;5.38;;;1.73;;
22320;SDS011;11328;53.928;18.522;2023-07-20T07:07:46;5.53;;;1.58;;
22320;SDS011;11328;53.928;18.522;2023-07-20T07:10:13;8.70;;;2.22;;
22320;SDS011;11328;53.928;18.522;2023-07-20T07:12:40;10.63;;;4.10;;
22320;SDS011;11328;53.928;18.522;2023-07-20T07:15:08;14.90;;;6.65;;
22320;SDS011;11328;53.928;18.522;2023-07-20T07:17:37;57.88;;;27.33;;
22320;SDS011;11328;53.928;18.522;2023-07-20T07:20:05;15.68;;;7.53;;
22320;SDS011;11328;53.928;18.522;2023-07-20T07:22:36;8.43;;;3.30;;
22320;SDS011;11328;53.928;18.522;2023-07-20T07:25:04;5.15;;;1.95;;
22320;SDS011;11328;53.928;18.522;2023-07-20T07:27:32;7.07;;;2.08;;
22320;SDS011;11328;53.928;18.522;2023-07-20T07:29:59;5.20;;;2.10;;
22320;SDS011;11328;53.928;18.522;2023-07-20T07:32:26;5.30;;;2.05;;
22320;SDS011;11328;53.928;18.522;2023-07-20T07:34:53;4.82;;;1.85;;
22320;SDS011;11328;53.928;18.522;2023-07-20T07:37:21;4.45;;;2.20;;
22320;SDS011;11328;53.928;18.522;2023-07-20T07:39:49;6.13;;;1.73;;
22320;SDS011;11328;53.928;18.522;2023-07-20T07:42:16;4.53;;;1.40;;
22320;SDS011;11328;53.928;18.522;2023-07-20T07:44:45;7.35;;;2.53;;
22320;SDS011;11328;53.928;18.522;2023-07-20T07:47:12;7.25;;;1.50;;
22320;SDS011;11328;53.928;18.522;2023-07-20T07:49:42;3.85;;;1.45;;
22320;SDS011;11328;53.928;18.522;2023-07-20T07:52:12;6.53;;;1.80;;
22320;SDS011;11328;53.928;18.522;2023-07-20T07:54:40;6.65;;;1.25;;
22320;SDS011;11328;53.928;18.522;2023-07-20T07:57:07;3.63;;;1.23;;
22320;SDS011;11328;53.928;18.522;2023-07-20T07:59:34;7.18;;;1.50;;
22320;SDS011;11328;53.928;18.522;2023-07-20T08:02:04;5.72;;;1.23;;
22320;SDS011;11328;53.928;18.522;2023-07-20T08:04:32;2.88;;;1.33;;
22320;SDS011;11328;53.928;18.522;2023-07-20T08:06:59;4.00;;;1.35;;
22320;SDS011;11328;53.928;18.522;2023-07-20T08:09:30;3.63;;;1.17;;
22320;SDS011;11328;53.928;18.522;2023-07-20T08:11:57;2.67;;;1.20;;
22320;SDS011;11328;53.928;18.522;2023-07-20T08:14:24;5.25;;;1.90;;
22320;SDS011;11328;53.928;18.522;2023-07-20T08:16:51;4.60;;;1.65;;
22320;SDS011;11328;53.928;18.522;2023-07-20T08:19:19;8.77;;;2.08;;
22320;SDS011;11328;53.928;18.522;2023-07-20T08:21:47;3.97;;;1.48;;
22320;SDS011;11328;53.928;18.522;2023-07-20T08:24:14;3.90;;;1.45;;
22320;SDS011;11328;53.928;18.522;2023-07-20T08:26:41;3.30;;;1.30;;
22320;SDS011;11328;53.928;18.522;2023-07-20T08:29:08;3.80;;;1.48;;
22320;SDS011;11328;53.928;18.522;2023-07-20T08:31:35;3.70;;;1.40;;
22320;SDS011;11328;53.928;18.522;2023-07-20T08:34:03;3.65;;;1.40;;
22320;SDS011;11328;53.928;18.522;2023-07-20T08:36:49;3.65;;;1.30;;
22320;SDS011;11328;53.928;18.522;2023-07-20T08:39:17;3.95;;;1.30;;
22320;SDS011;11328;53.928;18.522;2023-07-20T08:41:44;4.85;;;1.58;;
22320;SDS011;11328;53.928;18.522;2023-07-20T08:44:13;4.55;;;1.60;;
22320;SDS011;11328;53.928;18.522;2023-07-20T08:46:41;3.97;;;1.35;;
22320;SDS011;11328;53.928;18.522;2023-07-20T08:49:11;2.30;;;1.25;;
22320;SDS011;11328;53.928;18.522;2023-07-20T08:51:39;5.00;;;1.70;;
22320;SDS011;11328;53.928;18.522;2023-07-20T08:54:08;5.10;;;1.70;;
22320;SDS011;11328;53.928;18.522;2023-07-20T08:56:38;5.57;;;1.40;;
22320;SDS011;11328;53.928;18.522;2023-07-20T08:59:10;5.43;;;1.50;;
22320;SDS011;11328;53.928;18.522;2023-07-20T09:01:42;4.45;;;1.55;;
22320;SDS011;11328;53.928;18.522;2023-07-20T09:04:12;4.85;;;1.77;;
22320;SDS011;11328;53.928;18.522;2023-07-20T09:06:40;4.05;;;1.70;;
22320;SDS011;11328;53.928;18.522;2023-07-20T09:09:11;5.88;;;2.00;;
22320;SDS011;11328;53.928;18.522;2023-07-20T09:11:38;5.20;;;1.88;;
22320;SDS011;11328;53.928;18.522;2023-07-20T09:14:08;4.55;;;1.90;;
22320;SDS011;11328;53.928;18.522;2023-07-20T09:19:45;6.20;;;1.47;;
22320;SDS011;11328;53.928;18.522;2023-07-20T09:22:13;6.13;;;1.52;;
22320;SDS011;11328;53.928;18.522;2023-07-20T09:24:41;5.30;;;1.85;;
22320;SDS011;11328;53.928;18.522;2023-07-20T09:27:10;5.15;;;1.65;;
22320;SDS011;11328;53.928;18.522;2023-07-20T09:29:50;3.55;;;1.23;;
22320;SDS011;11328;53.928;18.522;2023-07-20T09:32:18;6.00;;;1.65;;
22320;SDS011;11328;53.928;18.522;2023-07-20T09:34:51;3.67;;;1.95;;
22320;SDS011;11328;53.928;18.522;2023-07-20T09:37:22;6.65;;;1.80;;
22320;SDS011;11328;53.928;18.522;2023-07-20T09:39:51;6.63;;;2.08;;
22320;SDS011;11328;53.928;18.522;2023-07-20T09:42:22;7.18;;;1.80;;
22320;SDS011;11328;53.928;18.522;2023-07-20T09:44:54;11.15;;;2.20;;
22320;SDS011;11328;53.928;18.522;2023-07-20T09:47:23;3.58;;;1.20;;
22320;SDS011;11328;53.928;18.522;2023-07-20T09:49:58;3.85;;;1.65;;
22320;SDS011;11328;53.928;18.522;2023-07-20T09:52:29;11.15;;;2.20;;
22320;SDS011;11328;53.928;18.522;2023-07-20T09:55:01;5.38;;;1.77;;
22320;SDS011;11328;53.928;18.522;2023-07-20T09:57:29;3.47;;;1.35;;
22320;SDS011;11328;53.928;18.522;2023-07-20T10:00:05;4.22;;;1.77;;
22320;SDS011;11328;53.928;18.522;2023-07-20T10:05:13;2.90;;;1.60;;
22320;SDS011;11328;53.928;18.522;2023-07-20T10:07:44;3.15;;;1.50;;
22320;SDS011;11328;53.928;18.522;2023-07-20T10:10:15;3.30;;;1.20;;
22320;SDS011;11328;53.928;18.522;2023-07-20T10:12:46;3.90;;;1.50;;
22320;SDS011;11328;53.928;18.522;2023-07-20T10:18:02;9.73;;;2.67;;
22320;SDS011;11328;53.928;18.522;2023-07-20T10:20:48;6.28;;;2.80;;
22320;SDS011;11328;53.928;18.522;2023-07-20T10:23:22;2.60;;;1.42;;
22320;SDS011;11328;53.928;18.522;2023-07-20T10:25:50;5.47;;;2.00;;
22320;SDS011;11328;53.928;18.522;2023-07-20T10:28:17;4.82;;;1.88;;
22320;SDS011;11328;53.928;18.522;2023-07-20T10:30:44;3.10;;;1.83;;
22320;SDS011;11328;53.928;18.522;2023-07-20T10:33:13;3.40;;;1.52;;
22320;SDS011;11328;53.928;18.522;2023-07-20T10:35:50;4.97;;;1.90;;
22320;SDS011;11328;53.928;18.522;2023-07-20T10:41:22;6.68;;;1.63;;
22320;SDS011;11328;53.928;18.522;2023-07-20T10:44:08;4.20;;;1.60;;
22320;SDS011;11328;53.928;18.522;2023-07-20T10:49:07;4.15;;;1.80;;
22320;SDS011;11328;53.928;18.522;2023-07-20T10:56:43;4.45;;;1.52;;
22320;SDS011;11328;53.928;18.522;2023-07-20T10:59:57;4.63;;;1.88;;
22320;SDS011;11328;53.928;18.522;2023-07-20T11:02:09;2.38;;;1.27;;
22320;SDS011;11328;53.928;18.522;2023-07-20T11:04:39;1.92;;;0.90;;
22320;SDS011;11328;53.928;18.522;2023-07-20T11:07:16;6.47;;;2.10;;
22320;SDS011;11328;53.928;18.522;2023-07-20T11:10:23;3.30;;;1.20;;
22320;SDS011;11328;53.928;18.522;2023-07-20T11:20:54;3.90;;;1.30;;
22320;SDS011;11328;53.928;18.522;2023-07-20T11:23:22;5.50;;;1.73;;
22320;SDS011;11328;53.928;18.522;2023-07-20T11:25:49;3.90;;;1.15;;
22320;SDS011;11328;53.928;18.522;2023-07-20T11:28:17;4.68;;;1.55;;
22320;SDS011;11328;53.928;18.522;2023-07-20T11:30:44;5.20;;;2.17;;
22320;SDS011;11328;53.928;18.522;2023-07-20T11:33:11;7.60;;;2.50;;
22320;SDS011;11328;53.928;18.522;2023-07-20T11:35:45;3.60;;;1.98;;
22320;SDS011;11328;53.928;18.522;2023-07-20T11:38:13;5.28;;;1.70;;
22320;SDS011;11328;53.928;18.522;2023-07-20T11:40:44;4.43;;;1.65;;
22320;SDS011;11328;53.928;18.522;2023-07-20T11:43:12;6.72;;;3.33;;
22320;SDS011;11328;53.928;18.522;2023-07-20T11:45:43;3.30;;;1.30;;
22320;SDS011;11328;53.928;18.522;2023-07-20T11:48:15;7.43;;;1.10;;
22320;SDS011;11328;53.928;18.522;2023-07-20T11:50:43;4.53;;;1.40;;
22320;SDS011;11328;53.928;18.522;2023-07-20T11:53:11;4.90;;;1.50;;
22320;SDS011;11328;53.928;18.522;2023-07-20T11:55:39;5.20;;;1.40;;
22320;SDS011;11328;53.928;18.522;2023-07-20T11:58:08;7.85;;;1.42;;
22320;SDS011;11328;53.928;18.522;2023-07-20T12:00:37;4.00;;;1.60;;
22320;SDS011;11328;53.928;18.522;2023-07-20T12:03:09;3.95;;;1.60;;
22320;SDS011;11328;53.928;18.522;2023-07-20T12:05:38;4.60;;;1.48;;
22320;SDS011;11328;53.928;18.522;2023-07-20T12:08:25;3.80;;;1.42;;
22320;SDS011;11328;53.928;18.522;2023-07-20T12:10:52;2.20;;;1.30;;
22320;SDS011;11328;53.928;18.522;2023-07-20T12:13:19;3.10;;;1.10;;
22320;SDS011;11328;53.928;18.522;2023-07-20T12:15:46;4.47;;;1.20;;
22320;SDS011;11328;53.928;18.522;2023-07-20T12:18:13;1.60;;;1.20;;
22320;SDS011;11328;53.928;18.522;2023-07-20T12:20:40;4.40;;;1.25;;
22320;SDS011;11328;53.928;18.522;2023-07-20T12:23:08;3.03;;;1.40;;
22320;SDS011;11328;53.928;18.522;2023-07-20T12:28:14;6.28;;;1.45;;
22320;SDS011;11328;53.928;18.522;2023-07-20T12:30:44;1.30;;;0.80;;
22320;SDS011;11328;53.928;18.522;2023-07-20T12:33:14;2.53;;;0.90;;
22320;SDS011;11328;53.928;18.522;2023-07-20T12:35:44;2.00;;;0.80;;
22320;SDS011;11328;53.928;18.522;2023-07-20T12:38:12;2.75;;;1.02;;
22320;SDS011;11328;53.928;18.522;2023-07-20T12:40:39;4.82;;;0.77;;
22320;SDS011;11328;53.928;18.522;2023-07-20T12:43:07;1.65;;;0.60;;
22320;SDS011;11328;53.928;18.522;2023-07-20T12:45:34;2.25;;;0.70;;
22320;SDS011;11328;53.928;18.522;2023-07-20T12:48:02;4.38;;;1.27;;
22320;SDS011;11328;53.928;18.522;2023-07-20T12:50:30;3.97;;;1.42;;
22320;SDS011;11328;53.928;18.522;2023-07-20T12:52:57;8.05;;;2.47;;
22320;SDS011;11328;53.928;18.522;2023-07-20T12:55:24;7.22;;;2.60;;
22320;SDS011;11328;53.928;18.522;2023-07-20T12:57:51;2.97;;;1.70;;
22320;SDS011;11328;53.928;18.522;2023-07-20T13:00:19;2.97;;;1.15;;
22320;SDS011;11328;53.928;18.522;2023-07-20T13:02:46;1.80;;;0.65;;
22320;SDS011;11328;53.928;18.522;2023-07-20T13:05:14;3.30;;;0.80;;
22320;SDS011;11328;53.928;18.522;2023-07-20T13:07:42;3.70;;;1.30;;
22320;SDS011;11328;53.928;18.522;2023-07-20T13:10:12;2.35;;;1.10;;
22320;SDS011;11328;53.928;18.522;2023-07-20T13:12:39;2.40;;;0.75;;
22320;SDS011;11328;53.928;18.522;2023-07-20T13:15:07;1.55;;;0.75;;
22320;SDS011;11328;53.928;18.522;2023-07-20T13:17:37;1.90;;;1.10;;
22320;SDS011;11328;53.928;18.522;2023-07-20T13:20:06;4.03;;;1.05;;
22320;SDS011;11328;53.928;18.522;2023-07-20T13:22:40;2.00;;;0.85;;
22320;SDS011;11328;53.928;18.522;2023-07-20T13:25:08;3.08;;;0.63;;
22320;SDS011;11328;53.928;18.522;2023-07-20T13:27:36;2.33;;;0.70;;
22320;SDS011;11328;53.928;18.522;2023-07-20T13:30:04;2.67;;;1.10;;
22320;SDS011;11328;53.928;18.522;2023-07-20T13:32:37;2.72;;;0.98;;
22320;SDS011;11328;53.928;18.522;2023-07-20T13:35:10;3.10;;;1.20;;
22320;SDS011;11328;53.928;18.522;2023-07-20T13:37:41;6.45;;;2.28;;
22320;SDS011;11328;53.928;18.522;2023-07-20T13:40:08;6.57;;;3.22;;
22320;SDS011;11328;53.928;18.522;2023-07-20T13:42:39;5.55;;;2.20;;
22320;SDS011;11328;53.928;18.522;2023-07-20T13:45:07;3.67;;;0.73;;
22320;SDS011;11328;53.928;18.522;2023-07-20T13:47:35;3.58;;;0.65;;
22320;SDS011;11328;53.928;18.522;2023-07-20T13:50:03;3.15;;;1.40;;
22320;SDS011;11328;53.928;18.522;2023-07-20T13:52:31;3.20;;;1.17;;
22320;SDS011;11328;53.928;18.522;2023-07-20T13:55:01;3.95;;;1.27;;
22320;SDS011;11328;53.928;18.522;2023-07-20T13:57:30;4.00;;;1.40;;
22320;SDS011;11328;53.928;18.522;2023-07-20T14:00:01;1.83;;;0.60;;
22320;SDS011;11328;53.928;18.522;2023-07-20T14:02:30;3.22;;;0.90;;
22320;SDS011;11328;53.928;18.522;2023-07-20T14:05:01;3.25;;;0.60;;
22320;SDS011;11328;53.928;18.522;2023-07-20T14:07:31;1.08;;;0.60;;
22320;SDS011;11328;53.928;18.522;2023-07-20T14:09:59;1.98;;;0.68;;
22320;SDS011;11328;53.928;18.522;2023-07-20T14:12:29;1.98;;;1.17;;
22320;SDS011;11328;53.928;18.522;2023-07-20T14:14:55;3.25;;;0.88;;
22320;SDS011;11328;53.928;18.522;2023-07-20T14:17:23;1.80;;;1.25;;
22320;SDS011;11328;53.928;18.522;2023-07-20T14:19:50;4.25;;;1.80;;
22320;SDS011;11328;53.928;18.522;2023-07-20T14:22:19;4.55;;;1.52;;
22320;SDS011;11328;53.928;18.522;2023-07-20T14:24:47;1.98;;;1.00;;
22320;SDS011;11328;53.928;18.522;2023-07-20T14:27:14;4.53;;;1.08;;
22320;SDS011;11328;53.928;18.522;2023-07-20T14:29:42;4.07;;;1.50;;
22320;SDS011;11328;53.928;18.522;2023-07-20T14:32:09;2.38;;;1.00;;
22320;SDS011;11328;53.928;18.522;2023-07-20T14:34:36;4.78;;;1.00;;
22320;SDS011;11328;53.928;18.522;2023-07-20T14:37:05;2.47;;;0.70;;
22320;SDS011;11328;53.928;18.522;2023-07-20T14:39:32;2.28;;;0.70;;
22320;SDS011;11328;53.928;18.522;2023-07-20T14:42:00;1.70;;;0.90;;
22320;SDS011;11328;53.928;18.522;2023-07-20T14:44:27;2.78;;;0.90;;
22320;SDS011;11328;53.928;18.522;2023-07-20T14:46:55;1.30;;;0.80;;
22320;SDS011;11328;53.928;18.522;2023-07-20T14:49:39;2.65;;;0.93;;
22320;SDS011;11328;53.928;18.522;2023-07-20T14:52:06;2.28;;;1.00;;
22320;SDS011;11328;53.928;18.522;2023-07-20T14:54:36;4.30;;;1.05;;
22320;SDS011;11328;53.928;18.522;2023-07-20T14:57:03;3.53;;;1.50;;
22320;SDS011;11328;53.928;18.522;2023-07-20T14:59:31;4.95;;;0.80;;
22320;SDS011;11328;53.928;18.522;2023-07-20T15:01:58;2.80;;;0.80;;
22320;SDS011;11328;53.928;18.522;2023-07-20T15:04:25;2.97;;;1.00;;
22320;SDS011;11328;53.928;18.522;2023-07-20T15:06:53;3.22;;;0.95;;
22320;SDS011;11328;53.928;18.522;2023-07-20T15:09:21;4.57;;;1.40;;
22320;SDS011;11328;53.928;18.522;2023-07-20T15:11:48;5.35;;;1.02;;